Serene Lydia — C6YE7 — position and weather

sailwx.info

Track history (hours):
 
Tides and Currents Weather Stations Pressure Air Temp Water Temp Dewpoint Dewpoint Depression Visibility Wind Speed Wind Dir Waves Ship Positions

Serene Lydia

Last reported at 2016-Apr-26 07:27 UTC. Time now 2016-May-30 01:07 UTC.
Position N 01°58' E 102°15'.
Warning: this ship's position is 33 days out of date.

Length 190 m; draft 13.3 m.

Type: Ship. MMSI: 311030200.

Date/timePositionNaut miles runAvg speedWind from/ knotsBaromVisibWave heightAir tempDewpointWater temp
2016-Apr-26 07:27N 01°58' E 102°15'1011.1
2016-Apr-26 06:33N 01°53' E 102°24'1010.6
2016-Apr-26 05:34N 01°48' E 102°33'10 9.7
2016-Apr-26 04:31N 01°44' E 102°42'5710.4
2016-Apr-25 23:04N 01°13' E 103°30'510.6
2016-Apr-25 22:33N 01°12' E 103°35'9 9.6
2016-Apr-25 21:34N 01°08' E 103°44'7 7.4
2016-Apr-25 20:33N 01°12' E 103°51'8 7.6
2016-Apr-25 19:33N 01°15' E 103°58'5 4.5
2016-Apr-25 18:31N 01°17' E 104°02'0 0.1
2016-Apr-25 16:25N 01°17' E 104°01'0 0.1
2016-Apr-25 15:25N 01°17' E 104°01'0 0.0
2016-Apr-25 14:31N 01°17' E 104°01'0 0.0
2016-Apr-25 13:19N 01°17' E 104°01'0 0.0
2016-Apr-25 11:28N 01°17' E 104°01'0 0.1
2016-Apr-25 10:31N 01°17' E 104°01'0 0.0
2016-Apr-25 09:19N 01°17' E 104°01'0 0.0
2016-Apr-25 08:31N 01°17' E 104°01'0 0.0
2016-Apr-25 07:31N 01°17' E 104°01'0 0.0
2016-Apr-25 05:33N 01°17' E 104°01'3 3.0
2016-Apr-25 04:32N 01°16' E 103°59'3 3.1
2016-Apr-25 03:33N 01°16' E 104°02'4 4.1
2016-Apr-25 02:33N 01°16' E 104°06'  
Track history (hours):
 
Tides and Currents Weather Stations Pressure Air Temp Water Temp Dewpoint Dewpoint Depression Visibility Wind Speed Wind Dir Waves Ship Positions

Serene Lydia

Last reported at 2016-Apr-26 07:27 UTC. Time now 2016-May-30 01:07 UTC.
Position N 01°58' E 102°15'.
Warning: this ship's position is 33 days out of date.

Length 190 m; draft 13.3 m.

Type: Ship. MMSI: 311030200.

Date/timePositionNaut miles runAvg speedWind from/ knotsBaromVisibWave heightAir tempDewpointWater temp
2016-Apr-26 07:27N 01°58' E 102°15'1011.1
2016-Apr-26 06:33N 01°53' E 102°24'1010.6
2016-Apr-26 05:34N 01°48' E 102°33'10 9.7
2016-Apr-26 04:31N 01°44' E 102°42'5710.4
2016-Apr-25 23:04N 01°13' E 103°30'510.6
2016-Apr-25 22:33N 01°12' E 103°35'9 9.6
2016-Apr-25 21:34N 01°08' E 103°44'7 7.4
2016-Apr-25 20:33N 01°12' E 103°51'8 7.6
2016-Apr-25 19:33N 01°15' E 103°58'5 4.5
2016-Apr-25 18:31N 01°17' E 104°02'0 0.1
2016-Apr-25 16:25N 01°17' E 104°01'0 0.1
2016-Apr-25 15:25N 01°17' E 104°01'0 0.0
2016-Apr-25 14:31N 01°17' E 104°01'0 0.0
2016-Apr-25 13:19N 01°17' E 104°01'0 0.0
2016-Apr-25 11:28N 01°17' E 104°01'0 0.1
2016-Apr-25 10:31N 01°17' E 104°01'0 0.0
2016-Apr-25 09:19N 01°17' E 104°01'0 0.0
2016-Apr-25 08:31N 01°17' E 104°01'0 0.0
2016-Apr-25 07:31N 01°17' E 104°01'0 0.0
2016-Apr-25 05:33N 01°17' E 104°01'3 3.0
2016-Apr-25 04:32N 01°16' E 103°59'3 3.1
2016-Apr-25 03:33N 01°16' E 104°02'4 4.1
2016-Apr-25 02:33N 01°16' E 104°06'  

Dump ship's entire track history